sensor_id;sensor_type;location;lat;lon;timestamp;P1;durP1;ratioP1;P2;durP2;ratioP2
70122;SDS011;57489;37.404;24.920;2024-03-17T00:01:05;5.63;;;2.97;;
70122;SDS011;57489;37.404;24.920;2024-03-17T00:06:06;5.05;;;3.53;;
70122;SDS011;57489;37.404;24.920;2024-03-17T00:11:08;6.53;;;3.57;;
70122;SDS011;57489;37.404;24.920;2024-03-17T00:16:10;4.32;;;2.85;;
70122;SDS011;57489;37.404;24.920;2024-03-17T00:21:13;7.07;;;3.50;;
70122;SDS011;57489;37.404;24.920;2024-03-17T00:26:15;7.27;;;3.77;;
70122;SDS011;57489;37.404;24.920;2024-03-17T00:31:16;5.85;;;3.72;;
70122;SDS011;57489;37.404;24.920;2024-03-17T00:36:18;5.00;;;2.73;;
70122;SDS011;57489;37.404;24.920;2024-03-17T00:41:20;4.75;;;3.00;;
70122;SDS011;57489;37.404;24.920;2024-03-17T00:46:22;4.88;;;2.90;;
70122;SDS011;57489;37.404;24.920;2024-03-17T00:51:24;5.03;;;3.13;;
70122;SDS011;57489;37.404;24.920;2024-03-17T00:56:25;4.18;;;2.67;;
70122;SDS011;57489;37.404;24.920;2024-03-17T01:01:28;5.22;;;2.80;;
70122;SDS011;57489;37.404;24.920;2024-03-17T01:06:29;4.50;;;2.57;;
70122;SDS011;57489;37.404;24.920;2024-03-17T01:11:32;4.90;;;3.22;;
70122;SDS011;57489;37.404;24.920;2024-03-17T01:16:33;4.57;;;2.50;;
70122;SDS011;57489;37.404;24.920;2024-03-17T01:21:35;4.50;;;3.03;;
70122;SDS011;57489;37.404;24.920;2024-03-17T01:26:37;2.95;;;2.00;;
70122;SDS011;57489;37.404;24.920;2024-03-17T01:31:39;4.07;;;2.93;;
70122;SDS011;57489;37.404;24.920;2024-03-17T01:36:40;3.92;;;2.92;;
70122;SDS011;57489;37.404;24.920;2024-03-17T01:41:42;4.13;;;2.40;;
70122;SDS011;57489;37.404;24.920;2024-03-17T01:46:43;4.23;;;2.27;;
70122;SDS011;57489;37.404;24.920;2024-03-17T01:51:45;4.85;;;2.33;;
70122;SDS011;57489;37.404;24.920;2024-03-17T01:56:47;4.67;;;2.77;;
70122;SDS011;57489;37.404;24.920;2024-03-17T02:01:49;4.13;;;2.40;;
70122;SDS011;57489;37.404;24.920;2024-03-17T02:06:50;4.38;;;2.92;;
70122;SDS011;57489;37.404;24.920;2024-03-17T02:11:52;5.03;;;2.47;;
70122;SDS011;57489;37.404;24.920;2024-03-17T02:16:53;4.00;;;2.30;;
70122;SDS011;57489;37.404;24.920;2024-03-17T02:21:55;6.18;;;3.55;;
70122;SDS011;57489;37.404;24.920;2024-03-17T02:26:56;3.60;;;2.13;;
70122;SDS011;57489;37.404;24.920;2024-03-17T02:31:58;3.33;;;2.03;;
70122;SDS011;57489;37.404;24.920;2024-03-17T02:37:04;5.55;;;2.92;;
70122;SDS011;57489;37.404;24.920;2024-03-17T02:42:08;3.80;;;2.30;;
70122;SDS011;57489;37.404;24.920;2024-03-17T02:47:10;7.20;;;3.47;;
70122;SDS011;57489;37.404;24.920;2024-03-17T02:52:14;6.03;;;2.70;;
70122;SDS011;57489;37.404;24.920;2024-03-17T02:57:16;4.03;;;2.37;;
70122;SDS011;57489;37.404;24.920;2024-03-17T03:02:17;5.15;;;3.00;;
70122;SDS011;57489;37.404;24.920;2024-03-17T03:07:19;3.30;;;2.40;;
70122;SDS011;57489;37.404;24.920;2024-03-17T03:12:21;3.07;;;1.87;;
70122;SDS011;57489;37.404;24.920;2024-03-17T03:17:22;5.00;;;3.10;;
70122;SDS011;57489;37.404;24.920;2024-03-17T03:22:24;3.70;;;2.40;;
70122;SDS011;57489;37.404;24.920;2024-03-17T03:27:26;4.80;;;2.65;;
70122;SDS011;57489;37.404;24.920;2024-03-17T03:32:28;2.53;;;1.50;;
70122;SDS011;57489;37.404;24.920;2024-03-17T03:37:30;3.90;;;2.10;;
70122;SDS011;57489;37.404;24.920;2024-03-17T03:42:32;2.72;;;1.85;;
70122;SDS011;57489;37.404;24.920;2024-03-17T03:47:33;5.17;;;3.23;;
70122;SDS011;57489;37.404;24.920;2024-03-17T03:52:35;3.38;;;2.22;;
70122;SDS011;57489;37.404;24.920;2024-03-17T03:57:37;3.30;;;2.22;;
70122;SDS011;57489;37.404;24.920;2024-03-17T04:02:39;2.60;;;1.50;;
70122;SDS011;57489;37.404;24.920;2024-03-17T04:07:41;4.03;;;2.83;;
70122;SDS011;57489;37.404;24.920;2024-03-17T04:12:43;3.10;;;2.35;;
70122;SDS011;57489;37.404;24.920;2024-03-17T04:17:44;4.03;;;2.33;;
70122;SDS011;57489;37.404;24.920;2024-03-17T04:22:47;3.80;;;2.55;;
70122;SDS011;57489;37.404;24.920;2024-03-17T04:27:48;3.07;;;2.07;;
70122;SDS011;57489;37.404;24.920;2024-03-17T04:32:50;3.05;;;1.88;;
70122;SDS011;57489;37.404;24.920;2024-03-17T04:37:52;2.47;;;1.45;;
70122;SDS011;57489;37.404;24.920;2024-03-17T04:42:53;3.67;;;2.13;;
70122;SDS011;57489;37.404;24.920;2024-03-17T04:47:55;4.35;;;2.63;;
70122;SDS011;57489;37.404;24.920;2024-03-17T04:52:56;3.97;;;2.47;;
70122;SDS011;57489;37.404;24.920;2024-03-17T04:57:58;3.57;;;1.67;;
70122;SDS011;57489;37.404;24.920;2024-03-17T05:02:59;3.17;;;2.08;;
70122;SDS011;57489;37.404;24.920;2024-03-17T05:08:01;2.67;;;1.67;;
70122;SDS011;57489;37.404;24.920;2024-03-17T05:13:03;3.93;;;2.10;;
70122;SDS011;57489;37.404;24.920;2024-03-17T05:18:05;4.18;;;2.30;;
70122;SDS011;57489;37.404;24.920;2024-03-17T05:23:06;2.93;;;2.03;;
70122;SDS011;57489;37.404;24.920;2024-03-17T05:28:08;2.22;;;1.60;;
70122;SDS011;57489;37.404;24.920;2024-03-17T05:33:11;4.72;;;2.05;;
70122;SDS011;57489;37.404;24.920;2024-03-17T05:38:13;3.47;;;2.10;;
70122;SDS011;57489;37.404;24.920;2024-03-17T05:43:14;2.70;;;1.88;;
70122;SDS011;57489;37.404;24.920;2024-03-17T05:48:16;2.67;;;1.65;;
70122;SDS011;57489;37.404;24.920;2024-03-17T05:53:17;2.87;;;1.87;;
70122;SDS011;57489;37.404;24.920;2024-03-17T05:58:19;3.10;;;2.03;;
70122;SDS011;57489;37.404;24.920;2024-03-17T06:03:20;3.27;;;2.20;;
70122;SDS011;57489;37.404;24.920;2024-03-17T06:08:22;3.73;;;2.43;;
70122;SDS011;57489;37.404;24.920;2024-03-17T06:13:24;5.03;;;2.38;;
70122;SDS011;57489;37.404;24.920;2024-03-17T06:18:26;2.77;;;1.80;;
70122;SDS011;57489;37.404;24.920;2024-03-17T06:23:28;5.37;;;1.93;;
70122;SDS011;57489;37.404;24.920;2024-03-17T06:28:29;3.30;;;2.33;;
70122;SDS011;57489;37.404;24.920;2024-03-17T06:33:31;4.00;;;2.53;;
70122;SDS011;57489;37.404;24.920;2024-03-17T06:38:33;4.30;;;2.63;;
70122;SDS011;57489;37.404;24.920;2024-03-17T06:43:35;3.42;;;1.80;;
70122;SDS011;57489;37.404;24.920;2024-03-17T06:48:37;3.90;;;2.00;;
70122;SDS011;57489;37.404;24.920;2024-03-17T06:53:38;4.38;;;2.35;;
70122;SDS011;57489;37.404;24.920;2024-03-17T06:58:40;3.50;;;2.37;;
70122;SDS011;57489;37.404;24.920;2024-03-17T07:03:41;4.60;;;2.20;;
70122;SDS011;57489;37.404;24.920;2024-03-17T07:08:43;4.57;;;2.47;;
70122;SDS011;57489;37.404;24.920;2024-03-17T07:13:44;3.13;;;1.93;;
70122;SDS011;57489;37.404;24.920;2024-03-17T07:18:46;2.60;;;1.50;;
70122;SDS011;57489;37.404;24.920;2024-03-17T07:23:47;3.97;;;2.75;;
70122;SDS011;57489;37.404;24.920;2024-03-17T07:28:49;3.83;;;2.20;;
70122;SDS011;57489;37.404;24.920;2024-03-17T07:33:51;3.57;;;2.53;;
70122;SDS011;57489;37.404;24.920;2024-03-17T07:38:52;3.65;;;2.47;;
70122;SDS011;57489;37.404;24.920;2024-03-17T07:43:54;3.40;;;2.23;;
70122;SDS011;57489;37.404;24.920;2024-03-17T07:48:55;2.77;;;1.73;;
70122;SDS011;57489;37.404;24.920;2024-03-17T07:53:57;3.67;;;2.67;;
70122;SDS011;57489;37.404;24.920;2024-03-17T07:58:58;4.63;;;3.13;;
70122;SDS011;57489;37.404;24.920;2024-03-17T08:04:00;3.33;;;1.80;;
70122;SDS011;57489;37.404;24.920;2024-03-17T08:09:02;3.92;;;2.30;;
70122;SDS011;57489;37.404;24.920;2024-03-17T08:14:04;4.47;;;3.00;;
70122;SDS011;57489;37.404;24.920;2024-03-17T08:19:05;3.17;;;2.00;;
70122;SDS011;57489;37.404;24.920;2024-03-17T08:24:07;3.70;;;2.00;;
70122;SDS011;57489;37.404;24.920;2024-03-17T08:29:08;2.80;;;1.90;;
70122;SDS011;57489;37.404;24.920;2024-03-17T08:34:10;3.50;;;1.67;;
70122;SDS011;57489;37.404;24.920;2024-03-17T08:39:11;3.60;;;2.15;;
70122;SDS011;57489;37.404;24.920;2024-03-17T08:44:13;3.07;;;1.70;;
70122;SDS011;57489;37.404;24.920;2024-03-17T08:49:15;3.03;;;2.10;;
70122;SDS011;57489;37.404;24.920;2024-03-17T08:54:16;4.53;;;2.38;;
70122;SDS011;57489;37.404;24.920;2024-03-17T08:59:18;3.80;;;2.53;;
70122;SDS011;57489;37.404;24.920;2024-03-17T09:04:19;4.18;;;2.28;;
70122;SDS011;57489;37.404;24.920;2024-03-17T09:09:21;5.68;;;2.70;;
70122;SDS011;57489;37.404;24.920;2024-03-17T09:14:23;4.40;;;2.33;;
70122;SDS011;57489;37.404;24.920;2024-03-17T09:19:25;9.32;;;2.60;;
70122;SDS011;57489;37.404;24.920;2024-03-17T09:24:27;3.25;;;1.95;;
70122;SDS011;57489;37.404;24.920;2024-03-17T09:29:29;3.77;;;2.07;;
70122;SDS011;57489;37.404;24.920;2024-03-17T09:34:30;4.85;;;1.92;;
70122;SDS011;57489;37.404;24.920;2024-03-17T09:39:32;6.43;;;3.07;;
70122;SDS011;57489;37.404;24.920;2024-03-17T09:44:33;5.63;;;2.87;;
70122;SDS011;57489;37.404;24.920;2024-03-17T09:49:37;6.28;;;2.92;;
70122;SDS011;57489;37.404;24.920;2024-03-17T09:54:38;4.87;;;2.63;;
70122;SDS011;57489;37.404;24.920;2024-03-17T09:59:40;3.83;;;1.93;;
70122;SDS011;57489;37.404;24.920;2024-03-17T10:04:42;4.43;;;2.40;;
70122;SDS011;57489;37.404;24.920;2024-03-17T10:09:43;4.77;;;2.50;;
70122;SDS011;57489;37.404;24.920;2024-03-17T10:14:57;7.40;;;2.67;;
70122;SDS011;57489;37.404;24.920;2024-03-17T10:25:39;5.28;;;2.70;;
70122;SDS011;57489;37.404;24.920;2024-03-17T10:30:41;5.03;;;2.63;;
70122;SDS011;57489;37.404;24.920;2024-03-17T10:35:42;3.33;;;1.88;;
70122;SDS011;57489;37.404;24.920;2024-03-17T10:40:44;4.43;;;2.40;;
70122;SDS011;57489;37.404;24.920;2024-03-17T10:45:46;6.70;;;2.97;;
70122;SDS011;57489;37.404;24.920;2024-03-17T10:50:48;9.05;;;5.03;;
70122;SDS011;57489;37.404;24.920;2024-03-17T10:55:50;12.80;;;7.67;;
70122;SDS011;57489;37.404;24.920;2024-03-17T11:00:52;15.10;;;8.33;;
70122;SDS011;57489;37.404;24.920;2024-03-17T11:05:53;20.10;;;10.75;;
70122;SDS011;57489;37.404;24.920;2024-03-17T11:10:55;15.17;;;8.73;;
70122;SDS011;57489;37.404;24.920;2024-03-17T11:15:57;18.70;;;9.23;;
70122;SDS011;57489;37.404;24.920;2024-03-17T11:21:35;19.00;;;9.13;;
70122;SDS011;57489;37.404;24.920;2024-03-17T11:26:31;13.77;;;9.40;;
70122;SDS011;57489;37.404;24.920;2024-03-17T11:31:40;12.67;;;7.17;;
70122;SDS011;57489;37.404;24.920;2024-03-17T11:36:44;16.52;;;9.48;;
70122;SDS011;57489;37.404;24.920;2024-03-17T11:41:46;16.37;;;8.00;;
70122;SDS011;57489;37.404;24.920;2024-03-17T11:47:04;18.70;;;9.30;;
70122;SDS011;57489;37.404;24.920;2024-03-17T11:52:10;15.23;;;8.10;;
70122;SDS011;57489;37.404;24.920;2024-03-17T11:57:25;13.33;;;8.20;;
70122;SDS011;57489;37.404;24.920;2024-03-17T12:02:30;15.50;;;7.90;;
70122;SDS011;57489;37.404;24.920;2024-03-17T12:07:32;13.68;;;8.07;;
70122;SDS011;57489;37.404;24.920;2024-03-17T12:12:34;22.10;;;8.67;;
70122;SDS011;57489;37.404;24.920;2024-03-17T12:17:36;19.13;;;10.73;;
70122;SDS011;57489;37.404;24.920;2024-03-17T12:22:37;16.55;;;9.98;;
70122;SDS011;57489;37.404;24.920;2024-03-17T12:27:42;13.80;;;9.10;;
70122;SDS011;57489;37.404;24.920;2024-03-17T12:32:45;14.47;;;8.03;;
70122;SDS011;57489;37.404;24.920;2024-03-17T12:37:47;16.25;;;9.18;;
70122;SDS011;57489;37.404;24.920;2024-03-17T12:42:49;15.00;;;7.70;;
70122;SDS011;57489;37.404;24.920;2024-03-17T12:47:51;13.60;;;6.80;;
70122;SDS011;57489;37.404;24.920;2024-03-17T12:52:55;14.23;;;7.60;;
70122;SDS011;57489;37.404;24.920;2024-03-17T13:03:26;13.53;;;6.27;;
70122;SDS011;57489;37.404;24.920;2024-03-17T13:08:27;9.63;;;5.90;;
70122;SDS011;57489;37.404;24.920;2024-03-17T13:13:29;11.47;;;5.77;;
70122;SDS011;57489;37.404;24.920;2024-03-17T13:18:31;13.40;;;5.50;;
70122;SDS011;57489;37.404;24.920;2024-03-17T13:23:32;10.15;;;5.00;;
70122;SDS011;57489;37.404;24.920;2024-03-17T13:28:34;9.70;;;5.50;;
70122;SDS011;57489;37.404;24.920;2024-03-17T13:33:36;11.87;;;5.17;;
70122;SDS011;57489;37.404;24.920;2024-03-17T13:38:38;9.48;;;5.20;;
70122;SDS011;57489;37.404;24.920;2024-03-17T13:43:40;15.77;;;6.78;;
70122;SDS011;57489;37.404;24.920;2024-03-17T13:48:41;10.57;;;4.30;;
70122;SDS011;57489;37.404;24.920;2024-03-17T13:53:44;11.18;;;4.75;;
70122;SDS011;57489;37.404;24.920;2024-03-17T13:58:49;12.47;;;4.37;;
70122;SDS011;57489;37.404;24.920;2024-03-17T14:03:51;17.23;;;4.97;;
70122;SDS011;57489;37.404;24.920;2024-03-17T14:08:53;11.60;;;5.43;;
70122;SDS011;57489;37.404;24.920;2024-03-17T14:13:54;6.13;;;3.27;;
70122;SDS011;57489;37.404;24.920;2024-03-17T14:18:55;9.60;;;4.20;;
70122;SDS011;57489;37.404;24.920;2024-03-17T14:23:57;6.72;;;3.40;;
70122;SDS011;57489;37.404;24.920;2024-03-17T14:28:59;7.97;;;3.97;;
70122;SDS011;57489;37.404;24.920;2024-03-17T14:34:01;6.60;;;4.10;;
70122;SDS011;57489;37.404;24.920;2024-03-17T14:39:03;6.95;;;3.75;;
70122;SDS011;57489;37.404;24.920;2024-03-17T14:44:05;9.33;;;3.57;;
70122;SDS011;57489;37.404;24.920;2024-03-17T14:49:06;6.37;;;3.37;;
70122;SDS011;57489;37.404;24.920;2024-03-17T14:54:09;8.52;;;4.03;;
70122;SDS011;57489;37.404;24.920;2024-03-17T14:59:11;5.97;;;3.00;;
70122;SDS011;57489;37.404;24.920;2024-03-17T15:04:13;6.27;;;2.83;;
70122;SDS011;57489;37.404;24.920;2024-03-17T15:09:15;6.80;;;3.10;;
70122;SDS011;57489;37.404;24.920;2024-03-17T15:14:18;5.20;;;2.77;;
70122;SDS011;57489;37.404;24.920;2024-03-17T15:19:21;7.87;;;3.63;;
70122;SDS011;57489;37.404;24.920;2024-03-17T15:24:22;9.00;;;4.38;;
70122;SDS011;57489;37.404;24.920;2024-03-17T15:29:24;5.70;;;2.57;;
70122;SDS011;57489;37.404;24.920;2024-03-17T15:34:25;9.13;;;2.97;;
70122;SDS011;57489;37.404;24.920;2024-03-17T15:39:28;6.85;;;3.20;;
70122;SDS011;57489;37.404;24.920;2024-03-17T15:44:29;4.57;;;2.37;;
70122;SDS011;57489;37.404;24.920;2024-03-17T15:49:31;4.33;;;2.43;;
70122;SDS011;57489;37.404;24.920;2024-03-17T15:54:32;4.25;;;2.60;;
70122;SDS011;57489;37.404;24.920;2024-03-17T15:59:35;6.10;;;2.17;;
70122;SDS011;57489;37.404;24.920;2024-03-17T16:04:36;7.13;;;2.63;;
70122;SDS011;57489;37.404;24.920;2024-03-17T16:09:38;5.63;;;3.58;;
70122;SDS011;57489;37.404;24.920;2024-03-17T16:14:42;4.40;;;2.40;;
70122;SDS011;57489;37.404;24.920;2024-03-17T16:19:44;9.77;;;3.13;;
70122;SDS011;57489;37.404;24.920;2024-03-17T16:24:48;8.60;;;2.70;;
70122;SDS011;57489;37.404;24.920;2024-03-17T16:29:53;3.67;;;2.40;;
70122;SDS011;57489;37.404;24.920;2024-03-17T16:34:54;4.03;;;2.53;;
70122;SDS011;57489;37.404;24.920;2024-03-17T16:39:56;4.03;;;1.98;;
70122;SDS011;57489;37.404;24.920;2024-03-17T16:44:59;4.93;;;2.63;;
70122;SDS011;57489;37.404;24.920;2024-03-17T16:50:06;6.67;;;2.97;;
70122;SDS011;57489;37.404;24.920;2024-03-17T16:55:09;5.47;;;3.25;;
70122;SDS011;57489;37.404;24.920;2024-03-17T17:00:12;3.67;;;1.93;;
70122;SDS011;57489;37.404;24.920;2024-03-17T17:05:14;3.40;;;2.07;;
70122;SDS011;57489;37.404;24.920;2024-03-17T17:10:16;7.15;;;2.88;;
70122;SDS011;57489;37.404;24.920;2024-03-17T17:15:17;3.67;;;1.80;;
70122;SDS011;57489;37.404;24.920;2024-03-17T17:20:19;3.60;;;2.10;;
70122;SDS011;57489;37.404;24.920;2024-03-17T17:25:20;10.43;;;2.22;;
70122;SDS011;57489;37.404;24.920;2024-03-17T17:30:22;10.30;;;1.87;;
70122;SDS011;57489;37.404;24.920;2024-03-17T17:35:26;10.67;;;2.67;;
70122;SDS011;57489;37.404;24.920;2024-03-17T17:40:27;4.05;;;2.95;;
70122;SDS011;57489;37.404;24.920;2024-03-17T17:45:29;6.97;;;1.93;;
70122;SDS011;57489;37.404;24.920;2024-03-17T17:50:31;3.00;;;1.73;;
70122;SDS011;57489;37.404;24.920;2024-03-17T17:55:33;3.15;;;2.08;;
70122;SDS011;57489;37.404;24.920;2024-03-17T18:00:34;3.80;;;1.70;;
70122;SDS011;57489;37.404;24.920;2024-03-17T18:05:39;3.27;;;1.60;;
70122;SDS011;57489;37.404;24.920;2024-03-17T18:10:41;5.35;;;2.22;;
70122;SDS011;57489;37.404;24.920;2024-03-17T18:15:42;5.97;;;2.17;;
70122;SDS011;57489;37.404;24.920;2024-03-17T18:25:53;3.80;;;1.92;;
70122;SDS011;57489;37.404;24.920;2024-03-17T18:30:55;4.13;;;1.97;;
70122;SDS011;57489;37.404;24.920;2024-03-17T18:35:56;3.33;;;1.83;;
70122;SDS011;57489;37.404;24.920;2024-03-17T18:41:01;2.95;;;1.58;;
70122;SDS011;57489;37.404;24.920;2024-03-17T18:46:10;8.13;;;2.53;;
70122;SDS011;57489;37.404;24.920;2024-03-17T18:51:15;2.47;;;1.40;;
70122;SDS011;57489;37.404;24.920;2024-03-17T18:56:16;6.63;;;1.83;;
70122;SDS011;57489;37.404;24.920;2024-03-17T19:01:18;2.73;;;1.73;;
70122;SDS011;57489;37.404;24.920;2024-03-17T19:06:20;2.67;;;1.50;;
70122;SDS011;57489;37.404;24.920;2024-03-17T19:11:23;2.25;;;1.55;;
70122;SDS011;57489;37.404;24.920;2024-03-17T19:16:25;3.00;;;2.20;;
70122;SDS011;57489;37.404;24.920;2024-03-17T19:21:26;3.23;;;2.20;;
70122;SDS011;57489;37.404;24.920;2024-03-17T19:26:28;2.92;;;1.88;;
70122;SDS011;57489;37.404;24.920;2024-03-17T19:31:29;2.43;;;1.30;;
70122;SDS011;57489;37.404;24.920;2024-03-17T19:36:32;2.60;;;1.60;;
70122;SDS011;57489;37.404;24.920;2024-03-17T19:41:36;3.38;;;2.08;;
70122;SDS011;57489;37.404;24.920;2024-03-17T19:46:38;3.60;;;1.73;;
70122;SDS011;57489;37.404;24.920;2024-03-17T19:51:39;3.23;;;1.93;;
70122;SDS011;57489;37.404;24.920;2024-03-17T19:56:40;3.60;;;2.22;;
70122;SDS011;57489;37.404;24.920;2024-03-17T20:01:42;3.97;;;2.13;;
70122;SDS011;57489;37.404;24.920;2024-03-17T20:06:44;4.97;;;2.20;;
70122;SDS011;57489;37.404;24.920;2024-03-17T20:11:46;2.67;;;1.73;;
70122;SDS011;57489;37.404;24.920;2024-03-17T20:16:48;2.30;;;1.50;;
70122;SDS011;57489;37.404;24.920;2024-03-17T20:21:49;3.03;;;1.90;;
70122;SDS011;57489;37.404;24.920;2024-03-17T20:26:51;3.55;;;1.95;;
70122;SDS011;57489;37.404;24.920;2024-03-17T20:31:52;3.13;;;1.83;;
70122;SDS011;57489;37.404;24.920;2024-03-17T20:36:54;7.35;;;1.40;;
70122;SDS011;57489;37.404;24.920;2024-03-17T20:41:55;3.80;;;1.77;;
70122;SDS011;57489;37.404;24.920;2024-03-17T20:46:57;2.80;;;1.30;;
70122;SDS011;57489;37.404;24.920;2024-03-17T20:51:59;2.42;;;1.40;;
70122;SDS011;57489;37.404;24.920;2024-03-17T20:57:03;3.80;;;2.17;;
70122;SDS011;57489;37.404;24.920;2024-03-17T21:02:05;3.00;;;1.63;;
70122;SDS011;57489;37.404;24.920;2024-03-17T21:07:07;2.17;;;1.45;;
70122;SDS011;57489;37.404;24.920;2024-03-17T21:12:08;4.80;;;1.80;;
70122;SDS011;57489;37.404;24.920;2024-03-17T21:17:10;3.90;;;1.90;;
70122;SDS011;57489;37.404;24.920;2024-03-17T21:22:12;2.58;;;1.88;;
70122;SDS011;57489;37.404;24.920;2024-03-17T21:27:13;3.77;;;2.20;;
70122;SDS011;57489;37.404;24.920;2024-03-17T21:32:15;3.50;;;1.90;;
70122;SDS011;57489;37.404;24.920;2024-03-17T21:37:17;4.35;;;2.40;;
70122;SDS011;57489;37.404;24.920;2024-03-17T21:42:19;2.57;;;1.80;;
70122;SDS011;57489;37.404;24.920;2024-03-17T21:47:20;5.23;;;1.87;;
70122;SDS011;57489;37.404;24.920;2024-03-17T21:52:22;4.32;;;2.40;;
70122;SDS011;57489;37.404;24.920;2024-03-17T21:57:23;3.13;;;2.03;;
70122;SDS011;57489;37.404;24.920;2024-03-17T22:02:25;3.67;;;1.73;;
70122;SDS011;57489;37.404;24.920;2024-03-17T22:07:27;3.45;;;1.63;;
70122;SDS011;57489;37.404;24.920;2024-03-17T22:12:28;3.40;;;1.60;;
70122;SDS011;57489;37.404;24.920;2024-03-17T22:17:30;2.33;;;1.57;;
70122;SDS011;57489;37.404;24.920;2024-03-17T22:22:32;3.50;;;2.05;;
70122;SDS011;57489;37.404;24.920;2024-03-17T22:27:34;3.20;;;1.50;;
70122;SDS011;57489;37.404;24.920;2024-03-17T22:32:35;6.10;;;2.03;;
70122;SDS011;57489;37.404;24.920;2024-03-17T22:37:37;4.78;;;2.17;;
70122;SDS011;57489;37.404;24.920;2024-03-17T22:42:38;2.93;;;1.90;;
70122;SDS011;57489;37.404;24.920;2024-03-17T22:47:40;2.83;;;1.83;;
70122;SDS011;57489;37.404;24.920;2024-03-17T22:52:41;2.15;;;1.55;;
70122;SDS011;57489;37.404;24.920;2024-03-17T22:57:43;3.53;;;2.17;;
70122;SDS011;57489;37.404;24.920;2024-03-17T23:02:44;5.10;;;1.87;;
70122;SDS011;57489;37.404;24.920;2024-03-17T23:07:46;4.15;;;2.33;;
70122;SDS011;57489;37.404;24.920;2024-03-17T23:12:48;2.80;;;1.90;;
70122;SDS011;57489;37.404;24.920;2024-03-17T23:17:50;2.90;;;1.67;;
70122;SDS011;57489;37.404;24.920;2024-03-17T23:22:51;3.20;;;1.67;;
70122;SDS011;57489;37.404;24.920;2024-03-17T23:27:53;3.47;;;2.37;;
70122;SDS011;57489;37.404;24.920;2024-03-17T23:32:55;3.00;;;1.90;;
70122;SDS011;57489;37.404;24.920;2024-03-17T23:37:57;4.13;;;2.95;;
70122;SDS011;57489;37.404;24.920;2024-03-17T23:42:59;3.33;;;1.93;;
70122;SDS011;57489;37.404;24.920;2024-03-17T23:48:01;2.43;;;1.83;;
70122;SDS011;57489;37.404;24.920;2024-03-17T23:53:03;2.53;;;1.73;;
70122;SDS011;57489;37.404;24.920;2024-03-17T23:58:06;2.50;;;1.60;;
